Time,TemperatureF,DewpointF,PressureIn,WindDirection,WindDirectionDegrees,WindSpeedMPH,WindSpeedGustMPH,Humidity,HourlyPrecipIn,Conditions,Clouds,dailyrainin,SoftwareType,DateUTC
2013-04-01 00:01:00,46.2,44.0,29.71,WSW,248,0.0,7.0,90,0.00,,,0.00,weatherlink.com 1.10,2013-04-01 04:01:00,
2013-04-01 00:16:00,46.1,43.0,29.71,WNW,286,1.0,5.0,90,0.00,,,0.00,weatherlink.com 1.10,2013-04-01 04:16:00,
2013-04-01 00:31:00,46.2,43.0,29.71,West,279,1.0,7.0,88,0.00,,,0.00,weatherlink.com 1.10,2013-04-01 04:31:00,
2013-04-01 00:48:00,46.0,42.0,29.70,West,265,4.0,7.0,87,0.00,,,0.00,weatherlink.com 1.10,2013-04-01 04:48:00,
2013-04-01 01:03:00,45.5,42.0,29.70,West,281,1.0,5.0,87,0.00,,,0.00,weatherlink.com 1.10,2013-04-01 05:03:00,
2013-04-01 01:18:00,45.1,42.0,29.70,SW,236,2.0,5.0,88,0.00,,,0.00,weatherlink.com 1.10,2013-04-01 05:18:00,
2013-04-01 01:33:00,44.6,41.0,29.71,SW,215,2.0,6.0,88,0.00,,,0.00,weatherlink.com 1.10,2013-04-01 05:33:00,
2013-04-01 01:48:00,44.5,42.0,29.71,SSW,207,5.0,8.0,89,0.00,,,0.00,weatherlink.com 1.10,2013-04-01 05:48:00,
2013-04-01 02:05:00,44.3,41.0,29.72,South,184,5.0,9.0,89,0.00,,,0.00,weatherlink.com 1.10,2013-04-01 06:05:00,
2013-04-01 02:19:00,44.1,41.0,29.72,SW,214,1.0,7.0,89,0.00,,,0.00,weatherlink.com 1.10,2013-04-01 06:19:00,
2013-04-01 02:35:00,44.0,41.0,29.72,SSW,211,1.0,6.0,89,0.00,,,0.00,weatherlink.com 1.10,2013-04-01 06:35:00,
2013-04-01 02:50:00,43.5,41.0,29.72,SSW,211,0.0,2.0,89,0.00,,,0.00,weatherlink.com 1.10,2013-04-01 06:50:00,
2013-04-01 03:05:00,43.0,40.0,29.72,SSW,211,1.0,2.0,89,0.00,,,0.00,weatherlink.com 1.10,2013-04-01 07:05:00,
2013-04-01 03:20:00,43.1,40.0,29.71,SSW,207,0.0,6.0,90,0.00,,,0.00,weatherlink.com 1.10,2013-04-01 07:20:00,
2013-04-01 03:36:00,42.9,40.0,29.71,West,271,0.0,5.0,90,0.00,,,0.00,weatherlink.com 1.10,2013-04-01 07:36:00,
2013-04-01 03:51:00,42.6,40.0,29.71,SW,231,2.0,7.0,90,0.00,,,0.00,weatherlink.com 1.10,2013-04-01 07:51:00,
2013-04-01 04:21:00,42.1,39.0,29.71,SW,217,0.0,4.0,90,0.00,,,0.00,weatherlink.com 1.10,2013-04-01 08:21:00,
2013-04-01 04:37:00,42.3,40.0,29.72,SSW,210,2.0,6.0,90,0.00,,,0.00,weatherlink.com 1.10,2013-04-01 08:37:00,
2013-04-01 04:53:00,42.2,40.0,29.71,SSW,205,2.0,6.0,90,0.00,,,0.00,weatherlink.com 1.10,2013-04-01 08:53:00,
2013-04-01 05:08:00,42.4,40.0,29.71,SW,216,1.0,7.0,90,0.00,,,0.00,weatherlink.com 1.10,2013-04-01 09:08:00,
2013-04-01 05:23:00,42.5,40.0,29.71,SSW,209,5.0,7.0,90,0.00,,,0.00,weatherlink.com 1.10,2013-04-01 09:23:00,
2013-04-01 05:38:00,42.4,40.0,29.71,SSW,200,4.0,7.0,90,0.00,,,0.00,weatherlink.com 1.10,2013-04-01 09:38:00,
2013-04-01 05:53:00,42.3,40.0,29.71,SSW,208,1.0,6.0,90,0.00,,,0.00,weatherlink.com 1.10,2013-04-01 09:53:00,
2013-04-01 06:08:00,41.7,39.0,29.71,South,182,1.0,6.0,90,0.00,,,0.00,weatherlink.com 1.10,2013-04-01 10:08:00,
2013-04-01 06:24:00,41.7,39.0,29.70,SSW,195,1.0,5.0,90,0.00,,,0.00,weatherlink.com 1.10,2013-04-01 10:24:00,
2013-04-01 06:39:00,41.7,39.0,29.71,South,177,4.0,8.0,90,0.00,,,0.00,weatherlink.com 1.10,2013-04-01 10:39:00,
2013-04-01 06:54:00,41.5,39.0,29.71,SSW,210,1.0,6.0,91,0.00,,,0.00,weatherlink.com 1.10,2013-04-01 10:54:00,
2013-04-01 07:09:00,41.4,39.0,29.71,SSW,196,2.0,6.0,90,0.00,,,0.00,weatherlink.com 1.10,2013-04-01 11:09:00,
2013-04-01 07:25:00,41.3,39.0,29.71,WNW,302,0.0,6.0,91,0.00,,,0.00,weatherlink.com 1.10,2013-04-01 11:25:00,
2013-04-01 07:41:00,41.4,39.0,29.71,South,177,2.0,7.0,91,0.00,,,0.00,weatherlink.com 1.10,2013-04-01 11:41:00,
2013-04-01 08:11:00,42.8,40.0,29.70,SW,218,4.0,7.0,91,0.00,,,0.00,weatherlink.com 1.10,2013-04-01 12:11:00,
2013-04-01 08:26:00,43.5,41.0,29.70,SSW,208,8.0,8.0,91,0.00,,,0.00,weatherlink.com 1.10,2013-04-01 12:26:00,
2013-04-01 08:41:00,43.9,42.0,29.71,SW,215,3.0,8.0,91,0.00,,,0.00,weatherlink.com 1.10,2013-04-01 12:41:00,
2013-04-01 08:58:00,44.6,42.0,29.70,SW,224,7.0,9.0,91,0.00,,,0.00,weatherlink.com 1.10,2013-04-01 12:58:00,
2013-04-01 09:13:00,45.3,43.0,29.70,SW,232,0.0,9.0,90,0.00,,,0.00,weatherlink.com 1.10,2013-04-01 13:13:00,
2013-04-01 09:28:00,46.1,43.0,29.70,SSW,198,5.0,8.0,88,0.00,,,0.00,weatherlink.com 1.10,2013-04-01 13:28:00,
2013-04-01 09:43:00,46.7,43.0,29.70,South,186,1.0,9.0,86,0.00,,,0.00,weatherlink.com 1.10,2013-04-01 13:43:00,
2013-04-01 09:58:00,47.7,43.0,29.70,SSE,163,3.0,7.0,85,0.00,,,0.00,weatherlink.com 1.10,2013-04-01 13:58:00,
2013-04-01 10:13:00,49.1,44.0,29.70,SW,225,4.0,9.0,82,0.00,,,0.00,weatherlink.com 1.10,2013-04-01 14:13:00,
2013-04-01 10:28:00,50.9,45.0,29.69,SSW,203,3.0,10.0,80,0.00,,,0.00,weatherlink.com 1.10,2013-04-01 14:28:00,
2013-04-01 10:45:00,52.4,45.0,29.69,WSW,249,5.0,10.0,75,0.00,,,0.00,weatherlink.com 1.10,2013-04-01 14:45:00,
2013-04-01 10:59:00,53.3,44.0,29.69,SSW,199,7.0,14.0,72,0.00,,,0.00,weatherlink.com 1.10,2013-04-01 14:59:00,
2013-04-01 11:15:00,54.5,44.0,29.69,West,263,5.0,13.0,69,0.00,,,0.00,weatherlink.com 1.10,2013-04-01 15:15:00,
2013-04-01 11:29:00,55.1,43.0,29.68,West,261,4.0,16.0,65,0.00,,,0.00,weatherlink.com 1.10,2013-04-01 15:29:00,
2013-04-01 12:01:00,56.6,41.0,29.68,WNW,283,7.0,22.0,56,0.00,,,0.00,weatherlink.com 1.10,2013-04-01 16:01:00,
2013-04-01 12:17:00,57.5,41.0,29.68,WNW,288,7.0,19.0,54,0.00,,,0.00,weatherlink.com 1.10,2013-04-01 16:17:00,
2013-04-01 12:31:00,56.3,39.0,29.68,West,271,5.0,16.0,53,0.00,,,0.00,weatherlink.com 1.10,2013-04-01 16:31:00,
2013-04-01 12:46:00,55.8,41.0,29.68,WSW,245,7.0,16.0,57,0.00,,,0.00,weatherlink.com 1.10,2013-04-01 16:46:00,
2013-04-01 13:03:00,55.1,41.0,29.68,West,272,8.0,20.0,59,0.00,,,0.00,weatherlink.com 1.10,2013-04-01 17:03:00,
2013-04-01 13:18:00,55.8,38.0,29.67,WNW,282,11.0,20.0,52,0.00,,,0.00,weatherlink.com 1.10,2013-04-01 17:18:00,
2013-04-01 13:48:00,55.0,37.0,29.68,WNW,285,4.0,13.0,52,0.00,,,0.00,weatherlink.com 1.10,2013-04-01 17:48:00,
2013-04-01 14:03:00,54.0,39.0,29.68,WNW,299,9.0,19.0,57,0.00,,,0.00,weatherlink.com 1.10,2013-04-01 18:03:00,
2013-04-01 14:18:00,53.1,39.0,29.69,West,276,8.0,15.0,59,0.00,,,0.00,weatherlink.com 1.10,2013-04-01 18:18:00,
2013-04-01 14:33:00,54.0,39.0,29.69,West,265,8.0,19.0,57,0.00,,,0.00,weatherlink.com 1.10,2013-04-01 18:33:00,
2013-04-01 14:49:00,52.5,37.0,29.70,West,277,9.0,15.0,57,0.00,,,0.00,weatherlink.com 1.10,2013-04-01 18:49:00,
2013-04-01 15:05:00,51.5,36.0,29.71,WNW,293,5.0,19.0,55,0.00,,,0.00,weatherlink.com 1.10,2013-04-01 19:05:00,
2013-04-01 15:20:00,47.8,38.0,29.73,West,274,9.0,20.0,69,0.00,,,0.00,weatherlink.com 1.10,2013-04-01 19:20:00,
2013-04-01 15:35:00,45.6,39.0,29.72,WNW,288,6.0,13.0,78,0.00,,,0.00,weatherlink.com 1.10,2013-04-01 19:35:00,
2013-04-01 15:50:00,46.5,38.0,29.72,West,277,3.0,9.0,73,0.00,,,0.00,weatherlink.com 1.10,2013-04-01 19:50:00,
2013-04-01 16:06:00,48.1,35.0,29.72,WSW,239,2.0,14.0,61,0.00,,,0.00,weatherlink.com 1.10,2013-04-01 20:06:00,
2013-04-01 16:21:00,48.8,33.0,29.73,WNW,300,8.0,10.0,55,0.00,,,0.00,weatherlink.com 1.10,2013-04-01 20:21:00,
2013-04-01 16:36:00,49.1,32.0,29.73,NW,317,10.0,14.0,53,0.00,,,0.00,weatherlink.com 1.10,2013-04-01 20:36:00,
2013-04-01 16:51:00,49.8,31.0,29.73,WNW,303,6.0,14.0,49,0.00,,,0.00,weatherlink.com 1.10,2013-04-01 20:51:00,
2013-04-01 17:06:00,50.2,30.0,29.73,WNW,289,8.0,16.0,46,0.00,,,0.00,weatherlink.com 1.10,2013-04-01 21:06:00,
2013-04-01 17:22:00,50.1,29.0,29.74,WNW,282,6.0,15.0,45,0.00,,,0.00,weatherlink.com 1.10,2013-04-01 21:22:00,
2013-04-01 17:38:00,49.3,27.0,29.75,WNW,289,8.0,15.0,43,0.00,,,0.00,weatherlink.com 1.10,2013-04-01 21:38:00,
2013-04-01 17:53:00,48.6,25.0,29.75,West,280,6.0,15.0,40,0.01,,,0.01,weatherlink.com 1.10,2013-04-01 21:53:00,
2013-04-01 18:08:00,48.4,25.0,29.76,North,350,12.0,19.0,41,0.01,,,0.01,weatherlink.com 1.10,2013-04-01 22:08:00,
2013-04-01 18:23:00,47.3,25.0,29.76,West,276,13.0,19.0,42,0.01,,,0.01,weatherlink.com 1.10,2013-04-01 22:23:00,
2013-04-01 18:38:00,46.8,22.0,29.77,WNW,300,5.0,11.0,38,0.01,,,0.01,weatherlink.com 1.10,2013-04-01 22:38:00,
2013-04-01 18:55:00,46.2,24.0,29.78,NW,309,6.0,16.0,41,0.00,,,0.01,weatherlink.com 1.10,2013-04-01 22:55:00,
2013-04-01 19:10:00,45.5,20.0,29.79,West,270,9.0,18.0,36,0.00,,,0.01,weatherlink.com 1.10,2013-04-01 23:10:00,
2013-04-01 19:24:00,45.0,18.0,29.80,West,276,5.0,13.0,34,0.00,,,0.01,weatherlink.com 1.10,2013-04-01 23:24:00,
2013-04-01 19:40:00,44.5,18.0,29.81,WNW,301,10.0,18.0,34,0.00,,,0.01,weatherlink.com 1.10,2013-04-01 23:40:00,
2013-04-01 19:55:00,44.1,18.0,29.81,WNW,295,4.0,10.0,35,0.00,,,0.01,weatherlink.com 1.10,2013-04-01 23:55:00,
2013-04-01 20:10:00,43.5,19.0,29.82,WNW,287,4.0,7.0,37,0.00,,,0.01,weatherlink.com 1.10,2013-04-02 00:10:00,
2013-04-01 20:41:00,42.7,17.0,29.84,West,278,9.0,9.0,35,0.00,,,0.01,weatherlink.com 1.10,2013-04-02 00:41:00,
2013-04-01 20:56:00,42.5,16.0,29.85,NW,307,5.0,8.0,34,0.00,,,0.01,weatherlink.com 1.10,2013-04-02 00:56:00,
2013-04-01 21:11:00,42.0,15.0,29.86,NNW,330,7.0,9.0,34,0.00,,,0.01,weatherlink.com 1.10,2013-04-02 01:11:00,
2013-04-01 21:26:00,41.4,15.0,29.88,WNW,291,5.0,15.0,35,0.00,,,0.01,weatherlink.com 1.10,2013-04-02 01:26:00,
2013-04-01 21:43:00,40.6,15.0,29.89,WNW,303,6.0,14.0,35,0.00,,,0.01,weatherlink.com 1.10,2013-04-02 01:43:00,
2013-04-01 21:58:00,39.9,15.0,29.89,NW,321,9.0,12.0,37,0.00,,,0.01,weatherlink.com 1.10,2013-04-02 01:58:00,
2013-04-01 22:13:00,39.5,14.0,29.90,WNW,299,6.0,14.0,35,0.00,,,0.01,weatherlink.com 1.10,2013-04-02 02:13:00,
2013-04-01 22:28:00,38.7,14.0,29.91,NW,307,5.0,11.0,37,0.00,,,0.01,weatherlink.com 1.10,2013-04-02 02:28:00,
2013-04-01 22:43:00,37.7,15.0,29.91,WNW,303,4.0,14.0,39,0.00,,,0.01,weatherlink.com 1.10,2013-04-02 02:43:00,
2013-04-01 23:00:00,36.7,14.0,29.92,NW,316,4.0,8.0,40,0.00,,,0.01,weatherlink.com 1.10,2013-04-02 03:00:00,
2013-04-01 23:15:00,36.2,14.0,29.92,WNW,300,3.0,8.0,41,0.00,,,0.01,weatherlink.com 1.10,2013-04-02 03:15:00,
2013-04-01 23:30:00,35.9,15.0,29.93,WNW,303,5.0,10.0,42,0.00,,,0.01,weatherlink.com 1.10,2013-04-02 03:30:00,
2013-04-01 23:45:00,35.4,14.0,29.93,WNW,301,4.0,7.0,42,0.00,,,0.01,weatherlink.com 1.10,2013-04-02 03:45:00,